Dades meteomassalio
Diari Summary for Febrer 28, 2018 Units:  Metric    English   Both
« Previous Day
Next Day »
Diari Semanal Mensual Anual Personalitzat
  Maxima: Minima: Mijana:
Temperatura: -17.8 °C -17.4 °C -14.3 °C
Rosada: -17.8 °C -18.6 °C -15.5 °C
Humitat: Humidity % 76 % 86 %
Velocitat del vent: 0 km/h 0 km/h 8 km/h
Racha vent: 0 km/h - -
Vent:- - SE
Pressio: 0 hPa 33741.5 hPa -
Pluja: 226.06 mm    
Historical Graphs
 
 
Tabular Data for Febrer 28, 2018
Time Temperature Dew Point Pressure Wind Wind Speed Wind Gust Humidity Rainfall Rate (Hourly) solar Conditions
-17.8 °C -17.8 °C 0 hPa Calm     Humidity % 0 mm SolarRadiationWatts/m^2 W/m2 Conditions
00:03 -17.4 °C -18.6 °C 34198.6 hPa Calm     86 % 0 mm 0.0 W/m2 CLR
00:08 -17.4 °C -18.6 °C 34198.6 hPa Calm     86 % 0 mm 0.0 W/m2 CLR
00:13 -17.4 °C -18.6 °C 34198.6 hPa Calm     86 % 0 mm 0.0 W/m2 CLR
00:18 -17.4 °C -18.5 °C 34198.6 hPa Calm     87 % 0 mm 0.0 W/m2 CLR
00:23 -17.4 °C -18.5 °C 34188.4 hPa Calm     87 % 0 mm 0.0 W/m2 CLR
00:28 -17.4 °C -18.4 °C 34188.4 hPa Calm     87 % 0 mm 0.0 W/m2 CLR
00:33 -17.4 °C -18.4 °C 34188.4 hPa Calm     87 % 0 mm 0.0 W/m2 CLR
00:38 -17.4 °C -18.4 °C 34188.4 hPa Calm     87 % 0 mm 0.0 W/m2 CLR
00:43 -17.4 °C -18.4 °C 34188.4 hPa Calm     87 % 0 mm 0.0 W/m2 CLR
00:49 -17.4 °C -18.4 °C 34188.4 hPa Calm     87 % 0 mm 0.0 W/m2 CLR
00:54 -17.4 °C -18.4 °C 34188.4 hPa Calm     88 % 0 mm 0.0 W/m2 CLR
00:59 -17.4 °C -18.4 °C 34188.4 hPa Calm     88 % 0 mm 0.0 W/m2 CLR
01:04 -17.4 °C -18.4 °C 34198.6 hPa Calm     88 % 0 mm 0.0 W/m2 CLR
01:09 -17.4 °C -18.4 °C 34188.4 hPa Calm     88 % 0 mm 0.0 W/m2 CLR
01:14 -17.4 °C -18.4 °C 34188.4 hPa Calm     88 % 0 mm 0.0 W/m2 CLR
01:19 -17.4 °C -18.4 °C 34188.4 hPa Calm     88 % 0 mm 0.0 W/m2 CLR
01:24 -17.4 °C -18.4 °C 34188.4 hPa Calm     88 % 0 mm 0.0 W/m2 CLR
01:29 -17.4 °C -18.3 °C 34178.3 hPa Calm     89 % 0 mm 0.0 W/m2 CLR
01:34 -17.4 °C -18.3 °C 34178.3 hPa Calm     89 % 0 mm 0.0 W/m2 CLR
01:39 -17.3 °C -18.2 °C 34178.3 hPa Calm     89 % 0 mm 0.0 W/m2 CLR
01:44 -17.4 °C -18.3 °C 34164.7 hPa Calm     89 % 0 mm 0.0 W/m2 CLR
01:49 -17.3 °C -18.2 °C 34164.7 hPa Calm     89 % 0 mm 0.0 W/m2 CLR
01:54 -17.4 °C -18.3 °C 34164.7 hPa Calm     89 % 0 mm 0.0 W/m2 CLR
01:59 -17.4 °C -18.3 °C 34154.6 hPa Calm     89 % 0 mm 0.0 W/m2 CLR
02:04 -17.4 °C -18.2 °C 34154.6 hPa Calm     90 % 0 mm 0.0 W/m2 CLR
02:09 -17.4 °C -18.2 °C 34154.6 hPa Calm     90 % 0 mm 0.0 W/m2 CLR
02:14 -17.4 °C -18.2 °C 34154.6 hPa Calm     90 % 0 mm 0.0 W/m2 CLR
02:19 -17.4 °C -18.2 °C 34154.6 hPa Calm     90 % 7.62 mm 0.0 W/m2 RA
02:24 -17.4 °C -18.2 °C 34144.4 hPa Calm     90 % 7.62 mm 0.0 W/m2
02:29 -17.4 °C -18.2 °C 34144.4 hPa Calm     90 % 7.62 mm 0.0 W/m2 CLR
02:34 -17.4 °C -18.2 °C 34144.4 hPa Calm     90 % 12.7 mm 0.0 W/m2 RA
02:39 -17.4 °C -18.2 °C 34130.9 hPa Calm     90 % 12.7 mm 0.0 W/m2 CLR
02:44 -17.4 °C -18.2 °C 34144.4 hPa Calm     90 % 12.7 mm 0.0 W/m2 RA
02:49 -17.3 °C -18.2 °C 34130.9 hPa Calm     90 % 12.7 mm 0.0 W/m2 CLR
02:54 -17.3 °C -18.1 °C 34130.9 hPa Calm     91 % 20.32 mm 0.0 W/m2 RA
02:59 -17.3 °C -18.1 °C 34120.7 hPa Calm     91 % 25.4 mm 0.0 W/m2 RA
03:04 -17.3 °C -18.1 °C 34120.7 hPa Calm     91 % 33.02 mm 0.0 W/m2 RA
03:09 -17.3 °C -18 °C 34120.7 hPa Calm     91 % 33.02 mm 0.0 W/m2
03:14 -17.3 °C -18 °C 34120.7 hPa Calm     91 % 38.1 mm 0.0 W/m2 RA
03:19 -17.3 °C -18 °C 34120.7 hPa Calm     91 % 38.1 mm 0.0 W/m2 RA
03:24 -17.3 °C -18 °C 34107.2 hPa Calm     91 % 38.1 mm 0.0 W/m2 RA
03:29 -17.3 °C -18 °C 34107.2 hPa Calm     91 % 45.72 mm 0.0 W/m2 RA
03:34 -17.3 °C -18 °C 34107.2 hPa Calm     91 % 50.8 mm 0.0 W/m2 RA
03:39 -17.3 °C -17.9 °C 34107.2 hPa Calm     91 % 50.8 mm 0.0 W/m2
03:44 -17.3 °C -17.9 °C 34097 hPa Calm     91 % 58.42 mm 0.0 W/m2 RA
03:49 -17.3 °C -17.9 °C 34097 hPa Calm     91 % 58.42 mm 0.0 W/m2 RA
03:54 -17.3 °C -17.9 °C 34086.9 hPa Calm     91 % 58.42 mm 0.0 W/m2 RA
03:59 -17.3 °C -17.9 °C 34086.9 hPa Calm     91 % 58.42 mm 0.0 W/m2 RA
04:04 -17.3 °C -17.9 °C 34086.9 hPa Calm     91 % 58.42 mm 0.0 W/m2 RA
04:09 -17.2 °C -17.9 °C 34097 hPa Calm     92 % 71.12 mm 0.0 W/m2 RA
04:14 -17.2 °C -17.8 °C 34097 hPa Calm     92 % 76.2 mm 0.0 W/m2 RA
04:19 -17.1 °C -17.7 °C 34097 hPa Calm     92 % 76.2 mm 0.0 W/m2 RA
04:24 -16.9 °C -17.6 °C 34097 hPa Calm     92 % 83.82 mm 0.0 W/m2 RA
04:29 -16.8 °C -17.4 °C 34097 hPa Calm     92 % 83.82 mm 0.0 W/m2 RA
04:34 -16.6 °C -17.3 °C 34086.9 hPa Calm     92 % 83.82 mm 0.0 W/m2 RA
04:39 -16.6 °C -17.3 °C 34086.9 hPa Calm     92 % 83.82 mm 0.0 W/m2 RA
04:44 -16.6 °C -17.2 °C 34086.9 hPa Calm     92 % 83.82 mm 0.0 W/m2 RA
04:49 -16.5 °C -17.2 °C 34086.9 hPa ESE 5.1 km/h 5.1 km/h 92 % 83.82 mm 0.0 W/m2 RA
04:54 -16.4 °C -17.1 °C 34086.9 hPa SE 11.9 km/h 11.9 km/h 92 % 91.44 mm 0.0 W/m2 RA
04:59 -16.3 °C -17 °C 34073.3 hPa SE 20.9 km/h 20.9 km/h 92 % 91.44 mm 0.0 W/m2 RA
05:04 -16.3 °C -16.9 °C 34063.2 hPa SSE 25.9 km/h 25.9 km/h 92 % 91.44 mm 0.0 W/m2 RA
05:09 -16.2 °C -16.9 °C 34063.2 hPa SE 20.9 km/h 20.9 km/h 92 % 91.44 mm 0.0 W/m2 RA
05:14 -16.2 °C -16.9 °C 34063.2 hPa SSE 23.8 km/h 23.8 km/h 91 % 83.82 mm 0.0 W/m2
05:19 -16.2 °C -16.9 °C 34049.6 hPa SSE 29.8 km/h 29.8 km/h 91 % 83.82 mm 0.0 W/m2 RA
05:24 -16.2 °C -16.9 °C 34039.5 hPa East 11.9 km/h 11.9 km/h 91 % 76.2 mm 0.0 W/m2 RA
05:29 -16.2 °C -16.9 °C 34039.5 hPa SSE 9 km/h 9 km/h 91 % 71.12 mm 0.0 W/m2 CLR
05:34 -16.2 °C -17 °C 34039.5 hPa SE 6 km/h 6 km/h 91 % 58.42 mm 0.0 W/m2 CLR
05:39 -16.2 °C -17 °C 34039.5 hPa ESE 9 km/h 9 km/h 91 % 58.42 mm 0.0 W/m2 CLR
05:44 -16.2 °C -17 °C 34029.3 hPa ESE 6 km/h   91 % 58.42 mm 0.0 W/m2 RA
05:49 -16.3 °C -17 °C 34029.3 hPa East 3.1 km/h 3.1 km/h 91 % 45.72 mm 0.0 W/m2 CLR
05:54 -16.2 °C -17 °C 34029.3 hPa ESE 9 km/h 9 km/h 91 % 38.1 mm 0.0 W/m2 CLR
05:59 -16.2 °C -16.9 °C 34015.8 hPa SE 9 km/h 9 km/h 91 % 33.02 mm 0.0 W/m2 CLR
06:04 -16.1 °C -16.8 °C 34015.8 hPa SE 12.9 km/h 12.9 km/h 91 % 25.4 mm 0.0 W/m2 CLR
06:09 -16 °C -16.8 °C 34015.8 hPa Calm     91 % 12.7 mm 0.0 W/m2 CLR
06:14 -16.1 °C -16.8 °C 34005.6 hPa ESE 5.1 km/h 5.1 km/h 91 % 20.32 mm 0.0 W/m2 RA
06:20 -16.1 °C -16.8 °C 34005.6 hPa Calm     91 % 12.7 mm 0.0 W/m2
06:25 -16.1 °C -16.8 °C 34005.6 hPa ESE 10.3 km/h 10.3 km/h 91 % 12.7 mm 0.0 W/m2 CLR
06:30 -16 °C -16.8 °C 34005.6 hPa Calm   2.1 km/h 91 % 12.7 mm 0.0 W/m2 CLR
06:35 -16 °C -16.7 °C 34015.8 hPa East 3.1 km/h   91 % 12.7 mm 0.0 W/m2 CLR
06:40 -15.9 °C -16.7 °C 34005.6 hPa Calm     91 % 12.7 mm 0.0 W/m2 CLR
06:45 -15.9 °C -16.7 °C 34015.8 hPa Calm     91 % 7.62 mm 0.0 W/m2 CLR
06:50 -15.9 °C -16.7 °C 34005.6 hPa Calm     91 % 7.62 mm 0.0 W/m2 CLR
06:55 -15.9 °C -16.7 °C 34005.6 hPa Calm     91 % 7.62 mm 0.0 W/m2 CLR
07:00 -15.9 °C -16.7 °C 34005.6 hPa Calm     91 % 7.62 mm 0.0 W/m2 CLR
07:05 -15.9 °C -16.7 °C 33992.1 hPa Calm     91 % 7.62 mm 0.0 W/m2 CLR
07:10 -15.9 °C -16.6 °C 33992.1 hPa ESE 6 km/h 6 km/h 91 % 7.62 mm 0.0 W/m2 CLR
07:15 -15.8 °C -16.6 °C 33981.9 hPa ESE 15.6 km/h 15.6 km/h 91 % 0 mm 0.0 W/m2 CLR
07:20 -15.8 °C -16.5 °C 33981.9 hPa SE 9 km/h 9 km/h 91 % 0 mm 0.0 W/m2 CLR
07:25 -15.7 °C -16.4 °C 33981.9 hPa SE 9 km/h 9 km/h 91 % 0 mm 0.0 W/m2 OVC
07:30 -15.6 °C -16.4 °C 33981.9 hPa East 3.1 km/h   90 % 0 mm 0.0 W/m2 OVC
07:35 -15.6 °C -16.4 °C 33981.9 hPa SE 9 km/h 9 km/h 90 % 0 mm 0.0 W/m2 OVC
07:40 -15.6 °C -16.4 °C 33981.9 hPa SE 3.1 km/h 3.1 km/h 90 % 0 mm 0.0 W/m2 OVC
07:45 -15.6 °C -16.4 °C 33971.7 hPa Calm     90 % 0 mm 0.0 W/m2 OVC
07:50 -15.5 °C -16.4 °C 33971.7 hPa ESE 3.1 km/h 3.1 km/h 89 % 0 mm 0.0 W/m2 OVC
07:55 -15.5 °C -16.4 °C 33971.7 hPa ESE 17.9 km/h 17.9 km/h 89 % 0 mm 5.0 W/m2 OVC
08:00 -15.6 °C -16.5 °C 33971.7 hPa ESE 23.8 km/h 23.8 km/h 89 % 0 mm 5.0 W/m2 OVC
08:05 -15.6 °C -16.5 °C 33971.7 hPa ESE 3.1 km/h   89 % 0 mm 5.0 W/m2 OVC
08:10 -15.6 °C -16.5 °C 33971.7 hPa East 17.9 km/h 17.9 km/h 89 % 0 mm 9.0 W/m2 BKN
08:15 -15.6 °C -16.5 °C 33971.7 hPa SE 10.3 km/h 10.3 km/h 89 % 0 mm 12.0 W/m2 BKN
08:20 -15.5 °C -16.4 °C 33971.7 hPa ESE 10.3 km/h 10.3 km/h 89 % 0 mm 18.0 W/m2 BKN
08:25 -15.4 °C -16.4 °C 33971.7 hPa ESE 6 km/h 6 km/h 89 % 0 mm 19.0 W/m2 BKN
08:30 -15.4 °C -16.3 °C 33971.7 hPa Calm     89 % 0 mm 23.0 W/m2 BKN
08:35 -15.4 °C -16.3 °C 33971.7 hPa ESE 20.9 km/h 20.9 km/h 89 % 0 mm 23.0 W/m2 BKN
08:40 -15.4 °C -16.3 °C 33971.7 hPa ESE 9 km/h 9 km/h 89 % 0 mm 19.0 W/m2 BKN
08:45 -15.3 °C -16.3 °C 33971.7 hPa ESE 9 km/h 9 km/h 88 % 0 mm 23.0 W/m2 BKN
08:50 -15.2 °C -16.2 °C 33971.7 hPa SE 9 km/h 9 km/h 88 % 7.62 mm 26.0 W/m2 RA
08:55 -15.2 °C -16.2 °C 33958.2 hPa SE 6 km/h 6 km/h 88 % 7.62 mm 32.0 W/m2 BKN
09:00 -15.2 °C -16.2 °C 33958.2 hPa Calm     88 % 7.62 mm 39.0 W/m2 BKN
09:05 -15.2 °C -16.2 °C 33958.2 hPa East 3.1 km/h 3.1 km/h 88 % 7.62 mm 39.0 W/m2 BKN
09:10 -15.1 °C -16.2 °C 33958.2 hPa SE 6 km/h 6 km/h 88 % 7.62 mm 37.0 W/m2 BKN
09:15 -15.1 °C -16.1 °C 33958.2 hPa ESE 6 km/h 6 km/h 88 % 7.62 mm 37.0 W/m2 BKN
09:20 -15.1 °C -16.1 °C 33958.2 hPa SE 12.9 km/h 12.9 km/h 88 % 7.62 mm 40.0 W/m2 BKN
09:25 -15.1 °C -16.1 °C 33948 hPa East 9 km/h 9 km/h 88 % 12.7 mm 46.0 W/m2 RA
09:30 -15.1 °C -16.1 °C 33948 hPa ESE 11.9 km/h 11.9 km/h 88 % 12.7 mm 54.0 W/m2 SCT
09:35 -15.1 °C -16.1 °C 33958.2 hPa ESE 15 km/h 15 km/h 88 % 12.7 mm 72.0 W/m2 SCT
09:40 -15.1 °C -16 °C 33948 hPa SE 20.9 km/h 20.9 km/h 89 % 12.7 mm 97.0 W/m2 FEW
09:45 -14.9 °C -15.9 °C 33948 hPa SSE 11.9 km/h 11.9 km/h 89 % 12.7 mm 107.0 W/m2 CLR
09:50 -14.9 °C -15.8 °C 33948 hPa SE 11.9 km/h 11.9 km/h 89 % 7.62 mm 109.0 W/m2 CLR
09:55 -14.8 °C -15.8 °C 33948 hPa SE 9 km/h 9 km/h 89 % 7.62 mm 113.0 W/m2 CLR
10:00 -14.8 °C -15.7 °C 33948 hPa SSE 12.9 km/h 12.9 km/h 89 % 7.62 mm 125.0 W/m2 CLR
10:05 -14.8 °C -15.7 °C 33937.9 hPa SE 12.9 km/h 12.9 km/h 89 % 7.62 mm 139.0 W/m2 CLR
10:10 -14.7 °C -15.7 °C 33937.9 hPa SE 11.9 km/h 11.9 km/h 88 % 7.62 mm 109.0 W/m2 CLR
10:15 -14.6 °C -15.7 °C 33937.9 hPa SE 11.9 km/h 11.9 km/h 88 % 7.62 mm 128.0 W/m2 CLR
10:20 -14.6 °C -15.6 °C 33937.9 hPa East 25.9 km/h 25.9 km/h 88 % 7.62 mm 144.0 W/m2 CLR
10:25 -14.5 °C -15.5 °C 33937.9 hPa East 20.9 km/h 20.9 km/h 88 % 0 mm 116.0 W/m2 CLR
10:30 -14.5 °C -15.5 °C 33937.9 hPa ENE 20.9 km/h 20.9 km/h 88 % 0 mm 144.0 W/m2 CLR
10:35 -14.5 °C -15.4 °C 33937.9 hPa East 23.3 km/h 23.3 km/h 89 % 0 mm 214.0 W/m2 CLR
10:40 -14.4 °C -15.3 °C 33924.3 hPa ESE 26.9 km/h 26.9 km/h 89 % 0 mm 162.0 W/m2 CLR
10:45 -14.2 °C -15.2 °C 33924.3 hPa SE 29.8 km/h 29.8 km/h 88 % 0 mm 274.0 W/m2 CLR
10:50 -13.9 °C -15.1 °C 33924.3 hPa SE 23.8 km/h 23.8 km/h 87 % 0 mm 355.0 W/m2 CLR
10:55 -13.8 °C -14.9 °C 33924.3 hPa ESE 28.5 km/h 28.5 km/h 86 % 0 mm 285.0 W/m2 CLR
11:00 -13.5 °C -14.7 °C 33924.3 hPa South 20.9 km/h 20.9 km/h 86 % 0 mm 420.0 W/m2 CLR
11:05 -13.4 °C -14.9 °C 33914.2 hPa SSE 44.7 km/h 44.7 km/h 84 % 0 mm 374.0 W/m2 CLR
11:10 -13.3 °C -14.8 °C 33924.3 hPa SE 38.8 km/h 38.8 km/h 84 % 0 mm 499.0 W/m2 CLR
11:15 -13.2 °C -14.8 °C 33914.2 hPa SE 32.8 km/h 32.8 km/h 83 % 0 mm 329.0 W/m2 CLR
11:20 -13.2 °C -14.7 °C 33914.2 hPa SSE 29.8 km/h 29.8 km/h 83 % 0 mm 369.0 W/m2 CLR
11:25 -13 °C -14.6 °C 33914.2 hPa SSE 20.9 km/h 20.9 km/h 83 % 0 mm 394.0 W/m2 CLR
11:30 -12.8 °C -14.4 °C 33914.2 hPa SSE 29.8 km/h 29.8 km/h 82 % 0 mm 378.0 W/m2 CLR
11:35 -12.8 °C -14.6 °C 33914.2 hPa SE 36.2 km/h 36.2 km/h 81 % 0 mm 315.0 W/m2 CLR
11:40 -12.9 °C -14.5 °C 33914.2 hPa ESE 20.9 km/h 20.9 km/h 82 % 0 mm 288.0 W/m2 CLR
11:45 -12.9 °C -14.5 °C 33914.2 hPa South 26.9 km/h 26.9 km/h 82 % 0 mm 278.0 W/m2 CLR
11:50 -12.8 °C -14.4 °C 33914.2 hPa SSE 29.8 km/h 29.8 km/h 82 % 0 mm 229.0 W/m2 CLR
11:55 -12.7 °C -14.5 °C 33914.2 hPa SSE 35.7 km/h 35.7 km/h 81 % 0 mm 239.0 W/m2 CLR
12:00 -12.7 °C -14.5 °C 33914.2 hPa SSE 29.8 km/h 29.8 km/h 80 % 0 mm 237.0 W/m2 CLR
12:05 -12.6 °C -14.4 °C 33914.2 hPa SE 23.8 km/h 23.8 km/h 80 % 0 mm 193.0 W/m2 CLR
12:10 -12.7 °C -14.6 °C 33914.2 hPa SE 17.9 km/h 17.9 km/h 80 % 0 mm 160.0 W/m2 CLR
12:15 -12.8 °C -14.6 °C 33900.6 hPa SSE 26.9 km/h 26.9 km/h 81 % 0 mm 220.0 W/m2 CLR
12:20 -12.9 °C -14.6 °C 33900.6 hPa SSE 32.8 km/h 32.8 km/h 81 % 0 mm 227.0 W/m2 CLR
12:25 -12.9 °C -14.6 °C 33900.6 hPa SE 29.8 km/h 29.8 km/h 81 % 0 mm 213.0 W/m2 CLR
12:30 -12.8 °C -14.5 °C 33900.6 hPa SE 17.9 km/h 17.9 km/h 81 % 0 mm 230.0 W/m2 CLR
12:35 -12.8 °C -14.5 °C 33900.6 hPa SE 29.8 km/h 29.8 km/h 81 % 0 mm 248.0 W/m2 CLR
12:40 -12.7 °C -14.5 °C 33900.6 hPa SE 20.9 km/h 20.9 km/h 81 % 0 mm 253.0 W/m2 CLR
12:45 -12.7 °C -14.6 °C 33890.5 hPa SSE 35.7 km/h 35.7 km/h 80 % 0 mm 260.0 W/m2 CLR
12:50 -12.6 °C -14.4 °C 33890.5 hPa SSE 32.8 km/h 32.8 km/h 80 % 0 mm 285.0 W/m2 CLR
12:55 -12.6 °C -14.4 °C 33880.3 hPa SE 29.8 km/h 29.8 km/h 80 % 0 mm 258.0 W/m2 CLR
13:00 -12.4 °C -14.3 °C 33880.3 hPa SSE 23.3 km/h 23.3 km/h 80 % 0 mm 276.0 W/m2 CLR
13:05 -12.4 °C -14.3 °C 33880.3 hPa SE 35.7 km/h 35.7 km/h 79 % 0 mm 306.0 W/m2 CLR
13:11 -12.3 °C -14.3 °C 33880.3 hPa SSE 23.8 km/h 23.8 km/h 79 % 0 mm 311.0 W/m2 CLR
13:16 -12.3 °C -14.2 °C 33880.3 hPa SSE 31.1 km/h 31.1 km/h 79 % 0 mm 278.0 W/m2 CLR
13:21 -12.3 °C -14.2 °C 33880.3 hPa SE 26.9 km/h 26.9 km/h 79 % 0 mm 308.0 W/m2 CLR
13:26 -12.2 °C -14.2 °C 33866.8 hPa SSE 41.7 km/h 41.7 km/h 79 % 0 mm 265.0 W/m2 CLR
13:31 -12.2 °C -14 °C 33866.8 hPa SE 32.8 km/h 32.8 km/h 80 % 0 mm 264.0 W/m2 CLR
13:36 -12.2 °C -14.1 °C 33866.8 hPa SE 26.9 km/h 26.9 km/h 79 % 0 mm 255.0 W/m2 CLR
13:41 -12.2 °C -14.1 °C 33856.6 hPa SE 29.8 km/h 29.8 km/h 79 % 0 mm 234.0 W/m2 CLR
13:46 -12.2 °C -14 °C 33866.8 hPa SE 20.9 km/h 20.9 km/h 80 % 0 mm 265.0 W/m2 CLR
13:51 -12.1 °C -13.9 °C 33856.6 hPa SE 15 km/h 15 km/h 80 % 0 mm 243.0 W/m2 CLR
13:56 -12.1 °C -13.9 °C 33856.6 hPa Calm     80 % 0 mm 204.0 W/m2 CLR
14:01 -11.9 °C -13.8 °C 33843.1 hPa SE 10.3 km/h 10.3 km/h 79 % 0 mm 155.0 W/m2 CLR
14:06 -11.7 °C -13.8 °C 33843.1 hPa SSE 17.9 km/h 17.9 km/h 77 % 0 mm 134.0 W/m2 CLR
14:11 -11.6 °C -13.8 °C 33843.1 hPa SSE 11.9 km/h 11.9 km/h 76 % 0 mm 141.0 W/m2 CLR
14:16 -11.6 °C -13.8 °C 33843.1 hPa SSE 10.3 km/h 10.3 km/h 76 % 0 mm 209.0 W/m2 CLR
14:21 -11.7 °C -13.8 °C 33843.1 hPa SE 9 km/h 9 km/h 77 % 0 mm 223.0 W/m2 CLR
14:26 -11.9 °C -13.9 °C 33843.1 hPa SSE 17.9 km/h 17.9 km/h 78 % 0 mm 267.0 W/m2 CLR
14:31 -12.2 °C -14.1 °C 33843.1 hPa SSE 23.8 km/h 23.8 km/h 79 % 0 mm 274.0 W/m2 CLR
14:36 -12.2 °C -14 °C 33843.1 hPa SSE 23.8 km/h 23.8 km/h 80 % 0 mm 265.0 W/m2 CLR
14:41 -12.2 °C -14 °C 33843.1 hPa SSE 17.9 km/h 17.9 km/h 80 % 0 mm 255.0 W/m2 CLR
14:46 -12.1 °C -14.1 °C 33832.9 hPa South 20.9 km/h 20.9 km/h 79 % 0 mm 236.0 W/m2 CLR
14:51 -12.2 °C -14.1 °C 33832.9 hPa SE 29.8 km/h 29.8 km/h 79 % 0 mm 218.0 W/m2 CLR
14:56 -12.4 °C -14.3 °C 33832.9 hPa SE 23.8 km/h 23.8 km/h 80 % 0 mm 204.0 W/m2 CLR
15:01 -12.6 °C -14.2 °C 33832.9 hPa SSE 23.8 km/h 23.8 km/h 82 % 0 mm 195.0 W/m2 CLR
15:06 -12.6 °C -14.2 °C 33832.9 hPa South 26.9 km/h 26.9 km/h 82 % 0 mm 220.0 W/m2 CLR
15:11 -12.6 °C -14.2 °C 33832.9 hPa South 15 km/h 15 km/h 82 % 0 mm 193.0 W/m2 CLR
15:16 -12.6 °C -14.1 °C 33832.9 hPa South 20.9 km/h 20.9 km/h 83 % 0 mm 179.0 W/m2 CLR
15:21 -12.6 °C -14.1 °C 33832.9 hPa Calm     83 % 0 mm 197.0 W/m2 CLR
15:26 -12.6 °C -14.1 °C 33832.9 hPa SE 10.3 km/h 10.3 km/h 83 % 0 mm 216.0 W/m2 CLR
15:31 -12.7 °C -14.3 °C 33832.9 hPa ESE 9 km/h 9 km/h 83 % 0 mm 211.0 W/m2 CLR
15:36 -12.7 °C -14.2 °C 33832.9 hPa Calm     84 % 0 mm 195.0 W/m2 CLR
15:41 -12.7 °C -14.1 °C 33822.8 hPa Calm     84 % 0 mm 213.0 W/m2 CLR
15:46 -12.6 °C -14.1 °C 33822.8 hPa Calm     84 % 0 mm 214.0 W/m2 CLR
15:51 -12.6 °C -14.1 °C 33822.8 hPa Calm     83 % 0 mm 236.0 W/m2 CLR
15:56 -12.5 °C -14 °C 33822.8 hPa Calm     83 % 0 mm 230.0 W/m2 CLR
16:01 -12.4 °C -13.9 °C 33809.2 hPa Calm     84 % 0 mm 308.0 W/m2 CLR
16:06 -12.4 °C -13.8 °C 33809.2 hPa Calm     85 % 0 mm 327.0 W/m2 CLR
16:11 -12.3 °C -13.6 °C 33809.2 hPa Calm     86 % 0 mm 276.0 W/m2 CLR
16:16 -12.4 °C -13.9 °C 33809.2 hPa West 12.9 km/h 12.9 km/h 83 % 0 mm 350.0 W/m2 CLR
16:21 -12.6 °C -14 °C 33809.2 hPa Calm     84 % 0 mm 376.0 W/m2 CLR
16:26 -12.5 °C -13.8 °C 33809.2 hPa Calm     85 % 0 mm 360.0 W/m2 CLR
16:31 -12.3 °C -13.6 °C 33809.2 hPa Calm     85 % 0 mm 434.0 W/m2 CLR
16:36 -12.1 °C -13.4 °C 33822.8 hPa Calm     85 % 0 mm 265.0 W/m2 CLR
16:41 -11.9 °C -13.5 °C 33822.8 hPa Calm     82 % 0 mm 193.0 W/m2 CLR
16:46 -11.9 °C -13.6 °C 33809.2 hPa Calm     81 % 0 mm 158.0 W/m2 CLR
16:51 -11.9 °C -13.6 °C 33809.2 hPa Calm     81 % 0 mm 142.0 W/m2 CLR
16:56 -11.9 °C -13.7 °C 33799.1 hPa Calm     81 % 0 mm 141.0 W/m2 CLR
17:01 -12.1 °C -13.8 °C 33809.2 hPa Calm   0.3 km/h 81 % 0 mm 149.0 W/m2 CLR
17:06 -12.2 °C -13.9 °C 33809.2 hPa Calm     81 % 0 mm 142.0 W/m2 CLR
17:11 -12.3 °C -14 °C 33809.2 hPa Calm     81 % 0 mm 132.0 W/m2 CLR
17:16 -12.4 °C -14.1 °C 33809.2 hPa East 9 km/h 9 km/h 82 % 0 mm 128.0 W/m2 CLR
17:21 -12.6 °C -14.1 °C 33809.2 hPa Calm     83 % 0 mm 128.0 W/m2 CLR
17:26 -12.7 °C -14.1 °C 33799.1 hPa Calm     84 % 0 mm 116.0 W/m2 CLR
17:31 -12.7 °C -14.1 °C 33799.1 hPa Calm     85 % 0 mm 97.0 W/m2 CLR
17:36 -12.7 °C -14.1 °C 33799.1 hPa Calm     85 % 0 mm 79.0 W/m2 CLR
17:41 -12.7 °C -14.1 °C 33799.1 hPa Calm     85 % 0 mm 67.0 W/m2 FEW
17:46 -12.8 °C -14.1 °C 33799.1 hPa Calm     85 % 0 mm 53.0 W/m2 FEW
17:51 -12.9 °C -14.3 °C 33799.1 hPa ENE 10.3 km/h 10.3 km/h 85 % 0 mm 42.0 W/m2 BKN
17:56 -13.1 °C -14.3 °C 33788.9 hPa ENE 9 km/h   86 % 0 mm 42.0 W/m2 BKN
18:01 -13.1 °C -14.3 °C 33788.9 hPa East 3.1 km/h   86 % 0 mm 40.0 W/m2 BKN
18:06 -13.2 °C -14.4 °C 33788.9 hPa East 2.6 km/h 2.6 km/h 86 % 0 mm 30.0 W/m2 BKN
18:11 -13.2 °C -14.3 °C 33775.4 hPa Calm     87 % 0 mm 21.0 W/m2 BKN
18:16 -13.2 °C -14.3 °C 33788.9 hPa Calm     87 % 0 mm 18.0 W/m2 BKN
18:21 -13.2 °C -14.4 °C 33788.9 hPa Calm     87 % 0 mm 16.0 W/m2 BKN
18:26 -13.3 °C -14.4 °C 33775.4 hPa Calm     87 % 0 mm 12.0 W/m2 BKN
18:31 -13.3 °C -14.5 °C 33775.4 hPa East 6 km/h 6 km/h 87 % 0 mm 9.0 W/m2 BKN
18:36 -13.3 °C -14.4 °C 33775.4 hPa Calm     88 % 0 mm 5.0 W/m2 OVC
18:41 -13.4 °C -14.4 °C 33775.4 hPa Calm     88 % 0 mm 0.0 W/m2 OVC
18:46 -13.4 °C -14.4 °C 33765.2 hPa Calm     88 % 0 mm 0.0 W/m2 OVC
18:51 -13.4 °C -14.4 °C 33765.2 hPa ENE 10.3 km/h 10.3 km/h 88 % 0 mm 0.0 W/m2 OVC
18:56 -13.4 °C -14.5 °C 33751.6 hPa Calm     88 % 0 mm 0.0 W/m2 OVC
19:01 -13.4 °C -14.5 °C 33751.6 hPa Calm     88 % 0 mm 0.0 W/m2 CLR
19:06 -13.4 °C -14.5 °C 33751.6 hPa Calm     88 % 0 mm 0.0 W/m2 CLR
19:11 -13.5 °C -14.4 °C 33741.5 hPa Calm     89 % 0 mm 0.0 W/m2 CLR
19:16 -13.5 °C -14.4 °C 33741.5 hPa Calm     89 % 0 mm 0.0 W/m2 CLR
19:22 -13.5 °C -14.4 °C 33741.5 hPa SSE 6 km/h 6 km/h 89 % 0 mm 0.0 W/m2 CLR
19:27 -13.3 °C -14.3 °C 33751.6 hPa Calm     89 % 0 mm 0.0 W/m2 CLR
19:32 -13.2 °C -14.3 °C 33751.6 hPa Calm   0.3 km/h 88 % 0 mm 0.0 W/m2 CLR
19:37 -13.2 °C -14.3 °C 33765.2 hPa Calm     88 % 0 mm 0.0 W/m2 CLR
19:42 -13.2 °C -14.2 °C 33765.2 hPa Calm   0.5 km/h 88 % 0 mm 0.0 W/m2 CLR
19:47 -13.2 °C -14.2 °C 33775.4 hPa Calm     88 % 0 mm 0.0 W/m2 CLR
19:52 -13.1 °C -14.2 °C 33788.9 hPa Calm     88 % 0 mm 0.0 W/m2 CLR
19:57 -13.2 °C -14.3 °C 33788.9 hPa Calm     87 % 0 mm 0.0 W/m2 CLR
20:02 -13.2 °C -14.4 °C 33788.9 hPa Calm     87 % 0 mm 0.0 W/m2 CLR
20:07 -13.3 °C -14.3 °C 33788.9 hPa Calm     88 % 0 mm 0.0 W/m2 CLR
20:12 -13.4 °C -14.4 °C 33775.4 hPa Calm     88 % 0 mm 0.0 W/m2 CLR
20:17 -13.4 °C -14.3 °C 33775.4 hPa Calm     89 % 0 mm 0.0 W/m2 CLR
20:22 -13.3 °C -14.3 °C 33788.9 hPa Calm     89 % 0 mm 0.0 W/m2 CLR
20:27 -13.2 °C -14.2 °C 33788.9 hPa Calm     89 % 0 mm 0.0 W/m2 CLR
20:32 -13.2 °C -14.1 °C 33788.9 hPa Calm     89 % 0 mm 0.0 W/m2 CLR
20:37 -12.9 °C -14 °C 33788.9 hPa Calm     88 % 0 mm 0.0 W/m2 CLR
20:42 -12.9 °C -14.1 °C 33788.9 hPa Calm     87 % 0 mm 0.0 W/m2 CLR
20:47 -13 °C -14.1 °C 33775.4 hPa Calm     87 % 0 mm 0.0 W/m2 CLR
20:52 -13.1 °C -14.2 °C 33775.4 hPa Calm     87 % 0 mm 0.0 W/m2 CLR
20:57 -12.9 °C -14 °C 33765.2 hPa SSW 17.9 km/h 17.9 km/h 88 % 0 mm 0.0 W/m2 CLR
21:02 -12.7 °C -13.8 °C 33775.4 hPa Calm     87 % 0 mm 0.0 W/m2 CLR
21:07 -12.4 °C -13.8 °C 33775.4 hPa Calm     85 % 0 mm 0.0 W/m2 CLR
21:12 -12.3 °C -13.7 °C 33765.2 hPa SE 6 km/h 6 km/h 84 % 0 mm 0.0 W/m2 CLR
21:17 -12.2 °C -13.7 °C 33765.2 hPa ENE 6 km/h 6 km/h 83 % 0 mm 0.0 W/m2 CLR
21:22 -12.1 °C -13.8 °C 33765.2 hPa NE 11.9 km/h 11.9 km/h 82 % 0 mm 0.0 W/m2 CLR
21:27 -12.2 °C -13.8 °C 33775.4 hPa East 12.9 km/h 12.9 km/h 82 % 0 mm 0.0 W/m2 CLR
21:32 -12.1 °C -13.8 °C 33765.2 hPa ENE 11.9 km/h 11.9 km/h 82 % 0 mm 0.0 W/m2 CLR
21:37 -12.2 °C -13.8 °C 33765.2 hPa ENE 9 km/h 9 km/h 82 % 0 mm 0.0 W/m2 CLR
21:42 -12.2 °C -13.8 °C 33765.2 hPa East 15.6 km/h 15.6 km/h 82 % 0 mm 0.0 W/m2 CLR
21:47 -12.3 °C -14 °C 33751.6 hPa ENE 11.9 km/h 11.9 km/h 82 % 0 mm 0.0 W/m2 CLR
21:52 -12.4 °C -14 °C 33765.2 hPa NE 9 km/h   83 % 0 mm 0.0 W/m2 CLR
21:57 -12.4 °C -13.9 °C 33751.6 hPa Calm     83 % 0 mm 0.0 W/m2 CLR
22:02 -12.4 °C -13.9 °C 33751.6 hPa Calm     83 % 0 mm 0.0 W/m2 CLR
22:07 -12.3 °C -13.8 °C 33751.6 hPa Calm     83 % 0 mm 0.0 W/m2 CLR
22:12 -12.3 °C -13.9 °C 33751.6 hPa Calm     82 % 0 mm 0.0 W/m2 CLR
22:17 -12.3 °C -13.9 °C 33765.2 hPa Calm     82 % 0 mm 0.0 W/m2 CLR
22:22 -12.3 °C -13.9 °C 33765.2 hPa NE 9 km/h 9 km/h 82 % 0 mm 0.0 W/m2 CLR
22:27 -12.3 °C -13.9 °C 33765.2 hPa Calm     82 % 0 mm 0.0 W/m2 CLR
22:32 -12.3 °C -13.9 °C 33775.4 hPa Calm     82 % 0 mm 0.0 W/m2 CLR
22:37 -12.3 °C -13.9 °C 33765.2 hPa Calm     82 % 0 mm 0.0 W/m2 CLR
22:42 -12.3 °C -13.9 °C 33775.4 hPa Calm     82 % 0 mm 0.0 W/m2 CLR
22:47 -12.4 °C -14 °C 33775.4 hPa Calm     82 % 0 mm 0.0 W/m2 CLR
22:52 -12.4 °C -13.9 °C 33765.2 hPa Calm     83 % 0 mm 0.0 W/m2 CLR
22:57 -12.6 °C -14.1 °C 33765.2 hPa Calm     83 % 0 mm 0.0 W/m2 CLR
23:02 -12.6 °C -14.1 °C 33751.6 hPa Calm     84 % 0 mm 0.0 W/m2 CLR
23:07 -12.7 °C -14 °C 33751.6 hPa Calm     85 % 0 mm 0.0 W/m2 CLR
23:12 -12.6 °C -13.9 °C 33751.6 hPa Calm     85 % 0 mm 0.0 W/m2 CLR
23:17 -12.6 °C -14.1 °C 33751.6 hPa Calm     84 % 0 mm 0.0 W/m2 CLR
23:22 -12.7 °C -14 °C 33751.6 hPa Calm     85 % 0 mm 0.0 W/m2 CLR
23:27 -12.7 °C -14.1 °C 33751.6 hPa Calm     85 % 0 mm 0.0 W/m2 CLR
23:32 -12.7 °C -14.1 °C 33765.2 hPa Calm     85 % 0 mm 0.0 W/m2 CLR
23:37 -12.7 °C -14.1 °C 33765.2 hPa Calm     85 % 0 mm 0.0 W/m2 CLR
23:42 -12.8 °C -14.1 °C 33765.2 hPa Calm     85 % 0 mm 0.0 W/m2 CLR
23:47 -12.8 °C -14.1 °C 33765.2 hPa Calm     86 % 0 mm 0.0 W/m2 CLR
23:52 -12.9 °C -14.1 °C 33765.2 hPa Calm     86 % 0 mm 0.0 W/m2 CLR
23:57 -12.9 °C -14.1 °C 33751.6 hPa Calm     86 % 0 mm 0.0 W/m2 CLR
Lo Temps de Massalio
Compliments of Weather Underground - 1.25 mb